El Paso, TX (79925)

3:26 PM MDT on October 23, 2014 (GMT -0600)
Pico Norte Park | Change Station
CLOSE
Current Station
Personal Weather Station
Location: El Paso, TX
Elevation: 3934 ft
Nearby Weather Stations

Elev 3934 ft 31.78 °N, 106.32 °W | Updated 13 minutes ago

Partly Cloudy
Partly Cloudy
83.0 °F
Feels Like 82 °F
N
0.0
Wind Variable Wind from North
Gusts 4.0 mph

Today
High -- | Low -- °F
--% Chance of Precip.
Yesterday
High -- | Low -- °F
Precip. -- in
7:14 AM 6:24 PM
Waning Crescent, 0% visible
Pressure 29.96 in
Visibility 10.0 miles
Clouds Few 5500 ft
Heat Index 82 °F
Dew Point 51 °F
Humidity 33%
Rainfall 0.00 in
Snow Depth Not available.
UV 5 out of 12
Pollen 5.20 out of 12
Air Quality Not available.
Flu Activity Sporadic
METAR KELP 232051Z 00000KT 10SM FEW055 26/09 A3013 RMK AO2 SLP145 T02560089 56027

More Conditions Fewer Conditions

Pressure 29.96 in
Visibility 10.0 miles
Clouds Few 5500 ft
Heat Index 82 °F
Dew Point 51 °F
Humidity 33%
Rainfall 0.00 in
Snow Depth Not available.
UV 5 out of 12
Pollen 5.20 out of 12
Air Quality Not available.
Flu Activity Sporadic
METAR KELP 232051Z 00000KT 10SM FEW055 26/09 A3013 RMK AO2 SLP145 T02560089 56027

More Conditions Fewer Conditions

10-Day Weather Forecast

Almanac

Astronomy

Oct. 23, 2014 Rise Set
Actual Time 7:14 AM MDT 6:24 PM MDT
Civil Twilight 6:49 AM MDT 6:49 PM MDT
Nautical Twilight 6:21 AM MDT 7:17 PM MDT
Astronomical Twilight 5:52 AM MDT 7:45 PM MDT
Moon 6:58 AM MDT 6:27 PM MDT
Length of Visible Light 11h 59m
Length of Day
11h 09m
Tomorrow will be 1m 48s shorter.
Waning Crescent, 0% of the Moon is Illuminated
Today
Waning Crescent
Oct 23
New
Oct 30
First Quarter
Nov 6
Full
Nov 14
Last Quarter

Today's Extremes

State Highs State Lows

Community

WunderPhotos

Upload Photos

1,764,374 photos uploaded!

WunderBlogs® & News

Nearby

Snow Depth

Station Depth Elevation
No new snow has been reported.

Earthquake Activity

City Distance Mag. Time & Date
No recent earthquake activity has been reported nearby.
Minimum magnitude displayed is 2.5.

Coastal Water Temperatures

Place Temperature
No Stations Reporting

Nearby Weather Stations